• Join FlightAware (Why Join?)
  • Login
  • US Flag 
12:43PM EDT


 

Airport Tracker/Info


-or-


 

Live Flight TrackerFlight Track Log ✈ GJS3649 ✈ 05-May-2013 ✈ KBDL - KIAD

Flight Track Log - Related Links

Times and Time Zones

All times are in EDT time to prevent confusion due to time zone crossing. See the GJS3649 flight status page for this flight to view local times or setup timezone preferences in your user account.

Time Position Orientation Groundspeed Altitude Reporting Facility
EDT Latitude Longitude Course Direction KTS MPH feet Rate Location/Type
07:13PM 41.9228 -72.6744 242° Southwest 152 175 900  Level Boston Center
07:14PM 41.9061 -72.7275 247° West 216 249 2,700 2,100 Climbing Boston Center
07:15PM 41.8872 -72.8053 252° West 246 283 5,400 2,640 Climbing Boston Center
07:16PM 41.9000 -73.2353 270° West  Level FlightAware Approximate
07:16PM 41.8825 -72.9058 266° West 254 292 8,000  Level Boston Center
07:17PM 41.8688 -73.3624 236° Southwest  Level FlightAware Approximate
07:17PM 41.8906 -73.0117 276° West 267 307 10,400  Level Boston Center
07:18PM 41.8142 -73.4813 242° Southwest  Level FlightAware Approximate
07:18PM 41.8836 -73.1008 264° West 302 348 12,200  Level Boston Center
07:19PM 41.8494 -73.2511 253° West 339 390 14,400 2,040 Climbing Boston Center
07:20PM 41.8192 -73.3872 253° West 371 427 16,300 1,560 Climbing Boston Center
07:21PM 41.7886 -73.5231 253° West 383 441 17,900 1,500 Climbing Boston Center
07:22PM 41.7167 -73.6528 233° Southwest 394 453 19,900 1,800 Climbing Boston Center
07:24PM 41.4864 -73.8339 211° Southwest 407 468 23,900 1,800 Climbing New York Center
07:25PM 41.3844 -73.9122 210° Southwest 419 482 25,600 1,380 Climbing New York Center
07:26PM 41.2800 -73.9931 210° Southwest 434 499 26,700 1,020 Climbing New York Center
07:27PM 41.1694 -74.0758 209° Southwest 445 512 27,700 600 Climbing New York Center
07:28PM 41.1061 -74.1800 231° Southwest 445 512 28,000 120 Climbing New York Center
07:29PM 41.0244 -74.3411 236° Southwest 460 529 28,000  Level New York Center
07:30PM 40.9511 -74.4883 237° Southwest 478 550 28,000  Level New York Center
07:31PM 40.8897 -74.6469 243° Southwest 483 556 28,000  Level New York Center
07:32PM 40.8242 -74.8022 241° Southwest 483 556 28,000  Level New York Center
07:33PM 40.7542 -74.9542 239° Southwest 483 556 28,000 -180 Level New York Center
07:35PM 40.7123 -75.1208 252° West  Level FlightAware Approximate
07:35PM 40.6161 -75.2519 252° West 488 562 27,600  Level New York Center
07:36PM 40.5458 -75.4003 238° Southwest 488 562 25,600 -2,040 Descending New York Center
07:37PM 40.4775 -75.5458 238° Southwest 483 556 23,600 -2,040 Descending New York Center
07:38PM 40.4111 -75.6911 239° Southwest 477 549 21,600 -1,860 Descending New York Center
07:39PM 40.3428 -75.8306 237° Southwest 472 543 20,000 -840 Descending New York Center
07:40PM 40.2694 -75.9803 237° Southwest 460 529 20,000 -300 Level New York Center
07:41PM 40.2050 -76.1169 238° Southwest 454 522 19,500 -840 Descending New York Center
07:42PM 40.1453 -76.2400 238° Southwest 431 496 18,400 -1,020 Descending New York Center
07:43PM 40.0850 -76.3653 238° Southwest 408 470 17,500 -1,020 Descending New York Center
07:45PM 39.9667 -76.6333 240° Southwest 402 463 15,200 -840 Descending Potomac TRACON
07:46PM 39.9167 -76.7500 241° Southwest 396 456 15,000 -120 Descending Potomac TRACON
07:47PM 39.8500 -76.8667 233° Southwest 377 434 15,000 -480 Level Potomac TRACON
07:48PM 39.8000 -76.9833 241° Southwest 377 434 14,100 -1,500 Descending Potomac TRACON
07:49PM 39.7500 -77.1000 241° Southwest 381 438 12,200 -1,980 Descending Potomac TRACON
07:50PM 39.6833 -77.2167 233° Southwest 378 435 10,200 -1,500 Descending Potomac TRACON
07:51PM 39.6500 -77.3000 243° Southwest 342 394 9,200 -1,320 Descending Potomac TRACON
07:52PM 39.5833 -77.3667 218° Southwest 279 321 7,600 -1,680 Descending Potomac TRACON
07:53PM 39.5333 -77.4000 207° Southwest 266 306 6,100 -960 Descending Potomac TRACON
07:54PM 39.4500 -77.4333 197° South 259 298 5,700 -540 Descending Potomac TRACON
07:55PM 39.3667 -77.4333 180° South 261 300 5,000 -600 Descending Potomac TRACON
07:56PM 39.3000 -77.4333 180° South 261 300 4,500 -540 Descending Potomac TRACON
07:57PM 39.2333 -77.4333 180° South 252 290 4,000 -300 Descending Potomac TRACON
07:58PM 39.1667 -77.4333 180° South 231 266 4,000 -180 Level Potomac TRACON
07:59PM 39.1167 -77.4333 180° South 184 212 3,700 -780 Descending Potomac TRACON
08:00PM 39.0667 -77.4333 180° South 184 212 2,500 -1,080 Descending Potomac TRACON
08:01PM 39.0167 -77.4333 180° South 161 185 1,600 -900 Descending Potomac TRACON
08:02PM 38.9833 -77.4333 180° South 142 163 800 -840 Descending Potomac TRACON